Atlanta, MO (63530)

12:23 AM CST on February 28, 2017 (GMT -0600)
Jayhawk Place | | Change Station

Elev 889 ft 39.89 °N, 92.49 °W | Updated 10 seconds ago

Mostly Cloudy
Mostly Cloudy
58.2 °F
Feels Like 58.2 °F
N
0.0
Wind Variable Wind from SSE

Today
High -- | Low -- °F
--% Chance of Precip.
Yesterday
High -- | Low -- °F
Precip. -- in
Pressure 29.83 in
Visibility 10.0 miles
Clouds Scattered Clouds 3300 ft
Mostly Cloudy 4200 ft
Mostly Cloudy 5000 ft
Dew Point 49 °F
Humidity 71%
Rainfall 0.00 in
Snow Depth Not available.
6:44 AM 6:01 PM
Waxing Crescent, 3% visible
METAR KIRK 280555Z AUTO 17008KT 10SM SCT033 BKN042 BKN050 11/04 A2981 RMK AO2 SLP100 T01060039 10133 20094 401611056 56014
Pressure 29.83 in
Visibility 10.0 miles
Clouds Scattered Clouds 3300 ft
Mostly Cloudy 4200 ft
Mostly Cloudy 5000 ft
Dew Point 49 °F
Humidity 71%
Rainfall 0.00 in
Snow Depth Not available.
6:44 AM 6:01 PM
Waxing Crescent, 3% visible
METAR KIRK 280555Z AUTO 17008KT 10SM SCT033 BKN042 BKN050 11/04 A2981 RMK AO2 SLP100 T01060039 10133 20094 401611056 56014

Get Your Daily Forecast Email!

Thanks for signing up!

Be on the lookout for a verification email in your inbox.

You'll start receiving the daily forecast at 8 AM.

×

10-Day Weather Forecast

Almanac

Astronomy

Feb. 28, 2017 Rise Set
Actual Time
Civil Twilight
Nautical Twilight
Astronomical Twilight
Moon
Length of Visible Light
Length of Day
Tomorrow will be .
, % of the Moon is Illuminated

Today's Extremes

State Highs State Lows

Community

WunderPhotos

Upload Photos

1,962,540 photos uploaded!

WunderBlog® & News

Nearby

Air Quality

  Air Quality AQ Index Pollutant
Not available.

Snow Depth

Station Depth Elevation

Earthquake Activity

City Distance Mag. Time & Date
Minimum magnitude displayed is 2.5.

Coastal Water Temperatures

Place Temperature

Stations

Nearby Weather Stations

Station Location Temp. Windchill Dew Point Humidity Wind Precip. Elev Updated Type
                   

Watches & Warnings

There are currently no watches in effect.